createdAt,value
2022-09-23T00:01:17.020Z,16.90
2022-09-23T00:03:46.411Z,14.35
2022-09-23T00:06:16.390Z,12.70
2022-09-23T00:08:44.577Z,14.48
2022-09-23T00:11:14.910Z,17.88
2022-09-23T00:13:43.899Z,14.85
2022-09-23T00:16:13.881Z,17.17
2022-09-23T00:18:41.217Z,18.97
2022-09-23T00:21:11.279Z,14.52
2022-09-23T00:23:41.200Z,13.17
2022-09-23T00:26:09.918Z,12.63
2022-09-23T00:28:38.764Z,13.02
2022-09-23T00:31:08.977Z,17.13
2022-09-23T00:33:35.977Z,16.00
2022-09-23T00:36:05.241Z,12.40
2022-09-23T00:38:34.578Z,14.55
2022-09-23T00:41:01.861Z,16.27
2022-09-23T00:43:41.613Z,17.98
2022-09-23T00:46:10.755Z,19.45
2022-09-23T00:48:41.627Z,19.17
2022-09-23T00:53:38.211Z,17.63
2022-09-23T00:56:08.537Z,17.25
2022-09-23T00:58:37.804Z,14.88
2022-09-23T01:01:05.605Z,15.05
2022-09-23T01:03:32.866Z,17.08
2022-09-23T01:06:00.136Z,17.40
2022-09-23T01:08:28.795Z,15.27
2022-09-23T01:11:01.480Z,16.85
2022-09-23T01:13:35.186Z,20.45
2022-09-23T01:16:11.457Z,17.40
2022-09-23T01:19:22.232Z,16.48
2022-09-23T01:22:08.641Z,17.70
2022-09-23T01:24:47.752Z,13.05
2022-09-23T01:27:29.148Z,14.50
2022-09-23T01:30:07.774Z,13.27
2022-09-23T01:32:53.146Z,19.50
2022-09-23T01:36:01.133Z,16.90
2022-09-23T01:39:00.569Z,18.08
2022-09-23T01:41:47.383Z,21.02
2022-09-23T01:44:30.473Z,18.52
2022-09-23T01:47:02.750Z,19.55
2022-09-23T01:49:52.224Z,18.08
2022-09-23T01:52:39.359Z,15.60
2022-09-23T01:55:29.487Z,15.70
2022-09-23T01:58:04.061Z,13.73
2022-09-23T02:00:37.077Z,14.85
2022-09-23T02:03:17.643Z,12.90
2022-09-23T02:05:52.897Z,13.68
2022-09-23T02:08:29.875Z,16.52
2022-09-23T02:11:05.039Z,16.95
2022-09-23T02:13:40.375Z,13.07
2022-09-23T02:16:15.733Z,18.45
2022-09-23T02:18:52.455Z,13.80
2022-09-23T02:21:22.174Z,14.48
2022-09-23T02:24:00.389Z,20.77
2022-09-23T02:26:33.514Z,22.65
2022-09-23T02:29:24.978Z,23.50
2022-09-23T02:32:01.991Z,24.38
2022-09-23T02:35:01.365Z,23.50
2022-09-23T02:37:42.933Z,22.73
2022-09-23T02:40:46.334Z,22.77
2022-09-23T02:43:28.455Z,23.85
2022-09-23T02:45:56.450Z,18.23
2022-09-23T02:48:30.882Z,18.65
2022-09-23T02:51:02.535Z,15.68
2022-09-23T02:53:34.168Z,17.33
2022-09-23T02:56:02.230Z,19.55
2022-09-23T02:58:30.385Z,18.80
2022-09-23T03:01:06.399Z,23.77
2022-09-23T03:03:40.917Z,18.85
2022-09-23T03:06:24.503Z,23.67
2022-09-23T03:08:58.751Z,25.58
2022-09-23T03:11:26.604Z,26.52
2022-09-23T03:14:20.186Z,26.83
2022-09-23T03:17:07.426Z,27.85
2022-09-23T03:19:43.389Z,29.52
2022-09-23T03:22:19.297Z,29.38
2022-09-23T03:24:53.761Z,24.00
2022-09-23T03:27:27.007Z,32.35
2022-09-23T03:29:55.659Z,28.05
2022-09-23T03:32:28.198Z,32.78
2022-09-23T03:35:00.319Z,27.42
2022-09-23T03:37:47.573Z,27.52
2022-09-23T03:40:27.142Z,29.40
2022-09-23T03:42:59.118Z,25.77
2022-09-23T03:45:33.568Z,28.80
2022-09-23T03:48:01.486Z,23.75
2022-09-23T03:50:29.137Z,29.77
2022-09-23T03:52:56.068Z,28.48
2022-09-23T03:55:23.025Z,27.67
2022-09-23T03:57:49.901Z,31.25
2022-09-23T04:00:17.027Z,30.05
2022-09-23T04:02:44.550Z,28.20
2022-09-23T04:05:13.383Z,30.88
2022-09-23T04:07:41.357Z,24.02
2022-09-23T04:10:10.197Z,16.75
2022-09-23T04:12:37.706Z,22.52
2022-09-23T04:15:05.379Z,21.88
2022-09-23T04:17:32.341Z,24.50
2022-09-23T04:19:59.297Z,22.55
2022-09-23T04:22:26.520Z,25.30
2022-09-23T04:24:53.493Z,21.63
2022-09-23T04:27:23.192Z,25.15
2022-09-23T04:29:50.109Z,27.10
2022-09-23T04:32:17.088Z,25.17
2022-09-23T04:34:46.755Z,21.88
2022-09-23T04:37:13.889Z,28.95
2022-09-23T04:39:40.843Z,28.60
2022-09-23T04:42:08.000Z,30.38
2022-09-23T04:44:35.232Z,24.00
2022-09-23T04:47:02.260Z,21.77
2022-09-23T04:49:30.310Z,27.38
2022-09-23T04:51:57.165Z,35.92
2022-09-23T04:54:24.110Z,43.83
2022-09-23T04:56:51.059Z,69.05
2022-09-23T04:59:18.041Z,67.75
2022-09-23T05:01:45.006Z,85.10
2022-09-23T05:04:14.367Z,89.10
2022-09-23T05:06:44.165Z,149.25
2022-09-23T05:09:15.887Z,107.78
2022-09-23T05:11:42.880Z,184.40
2022-09-23T05:14:10.238Z,112.60
2022-09-23T05:16:37.494Z,322.05
2022-09-23T05:19:04.519Z,176.25
2022-09-23T05:21:31.854Z,174.18
2022-09-23T05:24:01.036Z,158.23
2022-09-23T05:26:32.534Z,152.18
2022-09-23T05:29:00.364Z,140.30
2022-09-23T05:31:29.159Z,165.98
2022-09-23T05:33:59.121Z,175.05
2022-09-23T05:36:27.860Z,148.57
2022-09-23T05:38:57.159Z,117.88
2022-09-23T05:41:25.630Z,131.90
2022-09-23T05:43:54.319Z,101.10
2022-09-23T05:46:28.228Z,134.18
2022-09-23T05:49:02.515Z,83.93
2022-09-23T05:51:31.488Z,64.18
2022-09-23T05:53:59.887Z,62.15
2022-09-23T05:56:28.391Z,69.57
2022-09-23T05:58:58.071Z,62.97
2022-09-23T06:01:28.074Z,54.20
2022-09-23T06:03:56.898Z,63.63
2022-09-23T06:06:42.978Z,54.28
2022-09-23T06:09:16.648Z,74.55
2022-09-23T06:11:43.782Z,61.50
2022-09-23T06:14:15.122Z,43.25
2022-09-23T06:16:43.368Z,58.00
2022-09-23T06:19:10.828Z,52.40
2022-09-23T06:21:39.814Z,56.78
2022-09-23T06:24:07.901Z,40.40
2022-09-23T06:26:36.675Z,37.33
2022-09-23T06:29:10.141Z,45.15
2022-09-23T06:31:37.274Z,31.85
2022-09-23T06:34:11.667Z,45.38
2022-09-23T06:36:44.375Z,43.13
2022-09-23T06:39:12.841Z,35.38
2022-09-23T06:41:39.702Z,39.03
2022-09-23T06:44:06.757Z,34.22
2022-09-23T06:46:33.863Z,39.15
2022-09-23T06:49:02.472Z,29.90
2022-09-23T06:51:29.421Z,35.55
2022-09-23T06:53:57.022Z,33.33
2022-09-23T06:56:24.653Z,25.08
2022-09-23T06:58:55.111Z,26.00
2022-09-23T07:01:23.127Z,26.45
2022-09-23T07:03:50.316Z,27.73
2022-09-23T07:06:18.003Z,25.85
2022-09-23T07:08:47.745Z,23.42
2022-09-23T07:11:16.070Z,24.45
2022-09-23T07:13:43.598Z,25.95
2022-09-23T07:16:11.692Z,25.50
2022-09-23T07:18:39.216Z,23.52
2022-09-23T07:21:08.844Z,16.83
2022-09-23T07:23:38.014Z,24.55
2022-09-23T07:26:06.070Z,20.35
2022-09-23T07:28:33.061Z,27.00
2022-09-23T07:31:38.587Z,17.85
2022-09-23T07:34:06.855Z,13.02
2022-09-23T07:36:33.902Z,14.15
2022-09-23T07:39:02.542Z,17.05
2022-09-23T07:41:31.372Z,15.93
2022-09-23T07:44:00.516Z,13.23
2022-09-23T07:46:30.781Z,10.50
2022-09-23T07:48:58.309Z,15.50
2022-09-23T07:51:34.744Z,11.80
2022-09-23T07:54:02.643Z,8.60
2022-09-23T07:56:30.850Z,5.68
2022-09-23T07:59:00.937Z,7.07
2022-09-23T08:01:42.942Z,4.45
2022-09-23T08:04:17.497Z,4.35
2022-09-23T08:06:46.757Z,5.90
2022-09-23T08:09:14.492Z,4.28
2022-09-23T08:11:42.354Z,4.47
2022-09-23T08:14:13.916Z,3.03
2022-09-23T08:16:42.298Z,3.70
2022-09-23T08:19:09.552Z,3.65
2022-09-23T08:21:37.970Z,3.10
2022-09-23T08:24:05.935Z,2.67
2022-09-23T08:26:34.732Z,4.07
2022-09-23T08:29:02.512Z,4.68
2022-09-23T08:31:29.499Z,3.47
2022-09-23T08:33:57.947Z,4.50
2022-09-23T08:36:26.123Z,3.38
2022-09-23T08:38:53.437Z,2.90
2022-09-23T08:41:35.040Z,1.83
2022-09-23T08:44:10.369Z,1.98
2022-09-23T08:46:52.977Z,1.27
2022-09-23T08:49:28.051Z,2.60
2022-09-23T08:51:55.392Z,1.80
2022-09-23T08:54:22.739Z,2.63
2022-09-23T08:56:52.653Z,2.30
2022-09-23T08:59:44.750Z,2.28
2022-09-23T09:02:23.290Z,4.30
2022-09-23T09:04:54.814Z,2.65
2022-09-23T09:07:38.636Z,3.35
2022-09-23T09:10:35.702Z,1.88
2022-09-23T09:13:33.910Z,2.60
2022-09-23T09:16:58.309Z,2.72
2022-09-23T09:19:41.806Z,3.80
2022-09-23T09:22:19.612Z,3.50
2022-09-23T09:24:49.598Z,3.17
2022-09-23T09:27:16.566Z,2.57
2022-09-23T09:29:50.105Z,5.20
2022-09-23T09:32:46.756Z,3.22
2022-09-23T09:35:42.983Z,4.65
2022-09-23T09:38:09.908Z,3.72
2022-09-23T09:40:47.041Z,4.10
2022-09-23T09:43:23.833Z,2.92
2022-09-23T09:46:16.595Z,4.05
2022-09-23T09:49:15.151Z,4.78
2022-09-23T09:51:43.000Z,3.50
2022-09-23T09:54:23.538Z,2.80
2022-09-23T09:56:52.114Z,3.28
2022-09-23T09:59:26.403Z,5.28
2022-09-23T10:02:27.210Z,5.60
2022-09-23T10:05:23.275Z,5.85
2022-09-23T10:07:50.185Z,7.00
2022-09-23T10:10:33.843Z,4.28
2022-09-23T10:13:16.419Z,2.53
2022-09-23T10:15:45.567Z,3.40
2022-09-23T10:18:32.283Z,2.92
2022-09-23T10:21:27.785Z,4.85
2022-09-23T10:24:01.925Z,3.72
2022-09-23T10:26:55.313Z,6.22
2022-09-23T10:29:39.318Z,3.85
2022-09-23T10:32:25.899Z,5.50
2022-09-23T10:35:03.730Z,9.88
2022-09-23T10:37:39.113Z,3.35
2022-09-23T10:40:38.765Z,6.22
2022-09-23T10:43:37.460Z,4.80
2022-09-23T10:46:42.496Z,4.72
2022-09-23T10:49:33.903Z,5.32
2022-09-23T10:52:14.565Z,3.25
2022-09-23T10:55:02.856Z,3.05
2022-09-23T10:57:41.273Z,5.65
2022-09-23T11:00:42.647Z,3.60
2022-09-23T11:03:27.704Z,4.20
2022-09-23T11:06:34.771Z,6.20
2022-09-23T11:09:07.459Z,8.57
2022-09-23T11:12:08.726Z,4.38
2022-09-23T11:14:44.283Z,5.63
2022-09-23T11:17:22.286Z,2.47
2022-09-23T11:20:21.614Z,3.30
2022-09-23T11:23:22.461Z,4.05
2022-09-23T11:26:00.677Z,3.08
2022-09-23T11:28:33.500Z,4.20
2022-09-23T11:31:07.030Z,6.03
2022-09-23T11:33:56.782Z,6.85
2022-09-23T11:36:33.136Z,2.75
2022-09-23T11:39:07.306Z,1.70
2022-09-23T11:41:40.026Z,2.80
2022-09-23T11:44:34.188Z,2.50
2022-09-23T11:47:26.776Z,1.92
2022-09-23T11:50:05.425Z,6.70
2022-09-23T11:52:37.116Z,4.38
2022-09-23T11:55:22.999Z,3.30
2022-09-23T11:57:57.295Z,3.65
2022-09-23T12:00:30.508Z,3.72
2022-09-23T12:03:12.217Z,3.13
2022-09-23T12:05:48.054Z,1.40
2022-09-23T12:08:37.622Z,3.33
2022-09-23T12:11:37.163Z,2.55
2022-09-23T12:14:41.436Z,2.70
2022-09-23T12:17:47.731Z,4.93
2022-09-23T12:20:46.407Z,1.70
2022-09-23T12:23:26.913Z,2.97
2022-09-23T12:25:58.154Z,4.15
2022-09-23T12:28:30.045Z,4.00
2022-09-23T12:31:01.345Z,3.85
2022-09-23T12:33:30.636Z,2.38
2022-09-23T12:36:06.282Z,1.60
2022-09-23T12:38:48.346Z,2.15
2022-09-23T12:41:43.411Z,2.17
2022-09-23T12:44:14.263Z,2.08
2022-09-23T12:49:36.077Z,1.52
2022-09-23T12:52:12.209Z,2.75
2022-09-23T12:54:40.903Z,3.35
2022-09-23T12:57:23.061Z,3.00
2022-09-23T13:00:14.244Z,4.85
2022-09-23T13:02:47.145Z,6.97
2022-09-23T13:05:58.129Z,6.38
2022-09-23T13:08:25.556Z,6.93
2022-09-23T13:11:00.351Z,10.02
2022-09-23T13:13:38.870Z,8.90
2022-09-23T13:16:35.158Z,1.67
2022-09-23T13:19:04.605Z,4.60
2022-09-23T13:21:43.997Z,3.42
2022-09-23T13:24:14.048Z,5.30
2022-09-23T13:26:50.296Z,2.28
2022-09-23T13:29:28.616Z,2.00
2022-09-23T13:31:58.120Z,2.50
2022-09-23T13:34:29.347Z,4.50
2022-09-23T13:36:56.349Z,2.60
2022-09-23T13:39:28.010Z,1.65
2022-09-23T13:42:05.369Z,1.70
2022-09-23T13:44:32.350Z,1.40
2022-09-23T13:47:02.579Z,3.80
2022-09-23T13:49:37.147Z,2.75
2022-09-23T13:52:04.437Z,1.40
2022-09-23T13:54:35.766Z,2.63
2022-09-23T13:57:03.887Z,3.53
2022-09-23T13:59:37.355Z,1.90
2022-09-23T14:02:11.210Z,1.50
2022-09-23T14:04:38.655Z,2.95
2022-09-23T14:07:08.402Z,5.00
2022-09-23T14:09:36.047Z,3.50
2022-09-23T14:12:06.117Z,1.80
2022-09-23T14:14:35.326Z,3.25
2022-09-23T14:17:02.959Z,3.03
2022-09-23T14:19:30.336Z,4.05
2022-09-23T14:21:57.530Z,2.28
2022-09-23T14:24:32.267Z,2.97
2022-09-23T14:27:04.646Z,4.38
2022-09-23T14:29:37.571Z,3.53
2022-09-23T14:32:13.340Z,2.92
2022-09-23T14:34:43.174Z,3.53
2022-09-23T14:37:37.796Z,2.80
2022-09-23T14:40:11.513Z,4.10
2022-09-23T14:42:41.995Z,2.05
2022-09-23T14:45:35.932Z,3.58
2022-09-23T14:48:08.710Z,5.20
2022-09-23T14:50:48.802Z,5.28
2022-09-23T14:53:24.440Z,2.90
2022-09-23T14:55:57.843Z,4.63
2022-09-23T14:58:28.980Z,3.00
2022-09-23T15:01:01.090Z,3.58
2022-09-23T15:03:29.032Z,4.53
2022-09-23T15:06:03.100Z,5.72
2022-09-23T15:08:34.872Z,5.22
2022-09-23T15:11:08.207Z,3.70
2022-09-23T15:13:49.719Z,6.75
2022-09-23T15:16:24.827Z,7.07
2022-09-23T15:18:56.153Z,4.57
2022-09-23T15:21:25.239Z,5.15
2022-09-23T15:23:56.447Z,5.78
2022-09-23T15:26:24.786Z,4.63
2022-09-23T15:28:54.472Z,14.70
2022-09-23T15:31:23.609Z,40.40
2022-09-23T15:33:51.560Z,59.13
2022-09-23T15:36:26.268Z,31.33
2022-09-23T15:38:54.234Z,42.17
2022-09-23T15:41:21.678Z,39.53
2022-09-23T15:43:48.864Z,19.45
2022-09-23T15:46:26.370Z,15.02
2022-09-23T15:48:59.437Z,7.95
2022-09-23T15:51:27.946Z,11.73
2022-09-23T15:53:56.655Z,15.57
2022-09-23T15:56:29.374Z,18.17
2022-09-23T15:58:56.427Z,20.00
2022-09-23T16:01:30.514Z,38.10
2022-09-23T16:03:57.904Z,27.70
2022-09-23T16:06:24.892Z,23.83
2022-09-23T16:08:52.593Z,11.30
2022-09-23T16:11:26.996Z,14.48
2022-09-23T16:13:54.105Z,12.85
2022-09-23T16:16:24.151Z,9.18
2022-09-23T16:18:53.960Z,9.93
2022-09-23T16:21:24.667Z,8.55
2022-09-23T16:23:53.609Z,8.27
2022-09-23T16:26:22.006Z,5.05
2022-09-23T16:28:50.955Z,12.90
2022-09-23T16:31:18.880Z,9.20
2022-09-23T16:33:47.019Z,6.38
2022-09-23T16:36:28.046Z,10.95
2022-09-23T16:38:55.929Z,11.57
2022-09-23T16:41:26.544Z,10.02
2022-09-23T16:43:53.844Z,12.18
2022-09-23T16:46:21.565Z,22.98
2022-09-23T16:48:52.976Z,63.17
2022-09-23T16:51:29.010Z,116.78
2022-09-23T16:53:58.022Z,141.95
2022-09-23T16:56:28.798Z,159.23
2022-09-23T16:58:57.018Z,140.82
2022-09-23T17:01:45.643Z,237.60
2022-09-23T17:04:13.607Z,292.23
2022-09-23T17:06:45.059Z,358.23
2022-09-23T17:09:12.488Z,354.25
2022-09-23T17:11:39.679Z,289.88
2022-09-23T17:14:06.866Z,206.13
2022-09-23T17:16:35.571Z,156.95
2022-09-23T17:19:08.413Z,125.97
2022-09-23T17:21:35.714Z,106.78
2022-09-23T17:24:02.904Z,99.78
2022-09-23T17:26:30.068Z,81.35
2022-09-23T17:28:58.255Z,67.07
2022-09-23T17:31:25.416Z,68.32
2022-09-23T17:33:53.261Z,60.88
2022-09-23T17:36:21.157Z,56.50
2022-09-23T17:38:49.135Z,56.25
2022-09-23T17:41:18.397Z,60.17
2022-09-23T17:43:47.049Z,57.33
2022-09-23T17:46:18.954Z,57.95
2022-09-23T17:48:46.164Z,58.78
2022-09-23T17:51:14.811Z,57.72
2022-09-23T17:53:43.635Z,65.35
2022-09-23T17:56:21.927Z,81.97
2022-09-23T17:58:50.397Z,81.28
2022-09-23T18:01:20.423Z,79.53
2022-09-23T18:03:48.690Z,67.03
2022-09-23T18:06:21.409Z,79.57
2022-09-23T18:08:50.249Z,76.45
2022-09-23T18:11:21.779Z,77.43
2022-09-23T18:13:53.294Z,73.30
2022-09-23T18:16:22.041Z,76.47
2022-09-23T18:19:00.039Z,77.57
2022-09-23T18:21:30.779Z,84.65
2022-09-23T18:24:21.421Z,84.43
2022-09-23T18:26:45.869Z,81.47
2022-09-23T18:29:12.929Z,79.47
2022-09-23T18:31:39.887Z,100.10
2022-09-23T18:34:11.395Z,96.07
2022-09-23T18:36:39.025Z,108.15
2022-09-23T18:39:06.603Z,101.40
2022-09-23T18:41:34.221Z,105.82
2022-09-23T18:44:01.724Z,104.55
2022-09-23T18:46:30.161Z,103.68
2022-09-23T18:49:16.815Z,92.45
2022-09-23T18:51:56.127Z,94.70
2022-09-23T18:54:25.498Z,83.85
2022-09-23T18:56:52.972Z,83.10
2022-09-23T18:59:24.022Z,87.90
2022-09-23T19:01:56.866Z,81.38
2022-09-23T19:04:25.807Z,76.25
2022-09-23T19:06:54.261Z,69.50
2022-09-23T19:09:21.257Z,76.03
2022-09-23T19:11:52.452Z,65.15
2022-09-23T19:14:19.623Z,67.60
2022-09-23T19:16:49.235Z,63.67
2022-09-23T19:19:16.350Z,67.85
2022-09-23T19:21:43.552Z,69.85
2022-09-23T19:24:16.209Z,66.00
2022-09-23T19:26:44.290Z,52.03
2022-09-23T19:29:17.382Z,45.92
2022-09-23T19:31:44.632Z,40.25
2022-09-23T19:34:16.939Z,37.70
2022-09-23T19:36:46.586Z,38.05
2022-09-23T19:39:21.722Z,35.45
2022-09-23T19:41:50.822Z,36.78
2022-09-23T19:44:18.211Z,33.85
2022-09-23T19:46:46.495Z,36.38
2022-09-23T19:49:13.719Z,40.15
2022-09-23T19:51:41.379Z,35.95
2022-09-23T19:54:09.430Z,35.55
2022-09-23T19:56:36.910Z,36.00
2022-09-23T19:59:06.209Z,39.88
2022-09-23T20:01:34.634Z,46.30
2022-09-23T20:04:02.470Z,44.70
2022-09-23T20:06:31.251Z,47.70
2022-09-23T20:09:02.154Z,42.60
2022-09-23T20:11:30.064Z,43.28
2022-09-23T20:14:01.978Z,40.92
2022-09-23T20:16:32.628Z,42.58
2022-09-23T20:19:00.544Z,37.83
2022-09-23T20:21:29.623Z,38.35
2022-09-23T20:23:58.085Z,36.58
2022-09-23T20:26:43.680Z,38.53
2022-09-23T20:29:11.409Z,38.47
2022-09-23T20:31:40.698Z,38.90
2022-09-23T20:34:08.566Z,37.47
2022-09-23T20:36:36.491Z,46.40
2022-09-23T20:39:09.422Z,57.67
2022-09-23T20:41:38.137Z,65.18
2022-09-23T20:44:09.770Z,66.35
2022-09-23T20:46:37.017Z,63.60
2022-09-23T20:49:04.555Z,62.90
2022-09-23T20:51:33.639Z,61.55
2022-09-23T20:54:01.158Z,62.13
2022-09-23T20:56:29.511Z,57.13
2022-09-23T20:59:04.242Z,56.60
2022-09-23T21:01:37.309Z,53.45
2022-09-23T21:04:06.119Z,58.60
2022-09-23T21:06:35.689Z,61.42
2022-09-23T21:09:03.556Z,58.05
2022-09-23T21:11:31.485Z,59.95
2022-09-23T21:14:00.724Z,61.58
2022-09-23T21:16:27.714Z,72.13
2022-09-23T21:18:54.731Z,91.10
2022-09-23T21:21:22.571Z,87.03
2022-09-23T21:23:51.138Z,72.38
2022-09-23T21:26:22.190Z,63.63
2022-09-23T21:28:55.854Z,65.60
2022-09-23T21:31:26.006Z,65.93
2022-09-23T21:33:56.953Z,66.55
2022-09-23T21:36:25.009Z,60.10
2022-09-23T21:38:52.652Z,69.75
2022-09-23T21:41:20.161Z,72.57
2022-09-23T21:43:48.554Z,68.00
2022-09-23T21:46:20.656Z,68.35
2022-09-23T21:48:53.964Z,68.57
2022-09-23T21:51:25.154Z,66.30
2022-09-23T21:53:55.319Z,67.50
2022-09-23T21:56:32.177Z,65.43
2022-09-23T21:59:02.666Z,60.97
2022-09-23T22:01:35.454Z,61.90
2022-09-23T22:04:10.954Z,60.72
2022-09-23T22:06:40.721Z,62.60
2022-09-23T22:09:14.015Z,61.58
2022-09-23T22:12:00.573Z,59.63
2022-09-23T22:14:27.560Z,57.55
2022-09-23T22:16:59.359Z,52.65
2022-09-23T22:19:28.550Z,53.95
2022-09-23T22:21:56.412Z,52.05
2022-09-23T22:24:23.590Z,51.00
2022-09-23T22:26:51.031Z,57.90
2022-09-23T22:29:37.987Z,59.80
2022-09-23T22:32:28.658Z,58.17
2022-09-23T22:34:56.420Z,61.38
2022-09-23T22:37:34.385Z,63.28
2022-09-23T22:40:02.799Z,62.85
2022-09-23T22:42:30.416Z,63.03
2022-09-23T22:44:57.564Z,66.38
2022-09-23T22:47:24.714Z,59.05
2022-09-23T22:49:54.898Z,64.07
2022-09-23T22:52:24.735Z,63.03
2022-09-23T22:54:52.646Z,60.42
2022-09-23T22:57:19.932Z,57.53
2022-09-23T22:59:50.653Z,55.25
2022-09-23T23:02:19.239Z,59.70
2022-09-23T23:04:50.065Z,55.25
2022-09-23T23:07:22.723Z,54.38
2022-09-23T23:09:50.919Z,53.42
2022-09-23T23:12:20.469Z,50.65
2022-09-23T23:14:48.872Z,48.38
2022-09-23T23:17:16.387Z,44.67
2022-09-23T23:19:43.466Z,40.78
2022-09-23T23:22:10.718Z,45.40
2022-09-23T23:24:37.809Z,46.22
2022-09-23T23:27:04.780Z,41.10
2022-09-23T23:29:31.710Z,42.88
2022-09-23T23:31:58.657Z,41.80
2022-09-23T23:34:25.818Z,40.53
2022-09-23T23:36:56.433Z,39.75
2022-09-23T23:39:25.189Z,38.53
2022-09-23T23:41:55.222Z,42.50
2022-09-23T23:44:24.127Z,38.33
2022-09-23T23:46:51.566Z,39.20
2022-09-23T23:49:18.710Z,39.13
2022-09-23T23:51:45.920Z,38.97
2022-09-23T23:54:13.157Z,42.05
2022-09-23T23:56:40.148Z,40.20
2022-09-23T23:59:07.301Z,37.60
